createdAt,value
2019-01-13T00:00:11.506Z,8.50
2019-01-13T00:02:47.374Z,8.80
2019-01-13T00:05:27.839Z,8.70
2019-01-13T00:08:08.550Z,8.70
2019-01-13T00:10:49.495Z,8.70
2019-01-13T00:13:30.589Z,8.70
2019-01-13T00:16:11.272Z,8.80
2019-01-13T00:18:52.123Z,8.90
2019-01-13T00:21:32.672Z,8.90
2019-01-13T00:24:13.051Z,8.80
2019-01-13T00:26:53.554Z,8.80
2019-01-13T00:29:34.198Z,8.80
2019-01-13T00:32:14.979Z,8.80
2019-01-13T00:34:55.706Z,8.90
2019-01-13T00:37:36.722Z,8.90
2019-01-13T00:40:17.605Z,8.80
2019-01-13T00:42:58.162Z,8.70
2019-01-13T00:45:38.438Z,9.00
2019-01-13T00:48:19.344Z,8.80
2019-01-13T00:50:59.873Z,8.80
2019-01-13T00:53:40.547Z,8.80
2019-01-13T00:56:21.559Z,8.80
2019-01-13T00:59:02.203Z,8.80
2019-01-13T01:01:42.806Z,9.00
2019-01-13T01:04:23.289Z,8.80
2019-01-13T01:07:04.320Z,8.80
2019-01-13T01:09:44.572Z,9.00
2019-01-13T01:12:25.255Z,8.80
2019-01-13T01:15:06.078Z,8.90
2019-01-13T01:17:46.587Z,8.90
2019-01-13T01:20:27.240Z,8.90
2019-01-13T01:23:07.975Z,9.00
2019-01-13T01:25:48.936Z,9.00
2019-01-13T01:28:29.929Z,9.10
2019-01-13T01:31:10.582Z,9.20
2019-01-13T01:33:51.366Z,9.30
2019-01-13T01:36:31.757Z,9.30
2019-01-13T01:39:12.571Z,9.30
2019-01-13T01:41:53.243Z,9.20
2019-01-13T01:44:33.782Z,9.10
2019-01-13T01:47:14.230Z,9.10
2019-01-13T01:49:54.919Z,9.10
2019-01-13T01:52:35.851Z,9.00
2019-01-13T01:55:16.588Z,8.90
2019-01-13T01:57:57.378Z,9.00
2019-01-13T02:00:40.703Z,8.90
2019-01-13T02:03:20.942Z,8.90
2019-01-13T02:06:01.579Z,8.90
2019-01-13T02:11:25.197Z,8.90
2019-01-13T02:14:05.747Z,8.90
2019-01-13T02:16:46.379Z,8.90
2019-01-13T02:19:26.639Z,8.90
2019-01-13T02:22:07.339Z,8.90
2019-01-13T02:24:47.923Z,8.90
2019-01-13T02:27:28.787Z,9.00
2019-01-13T02:32:52.617Z,9.10
2019-01-13T02:35:33.179Z,9.10
2019-01-13T02:38:13.924Z,9.10
2019-01-13T02:40:54.419Z,9.20
2019-01-13T02:43:35.166Z,9.30
2019-01-13T02:46:15.611Z,9.30
2019-01-13T02:48:56.395Z,9.60
2019-01-13T02:51:37.279Z,9.40
2019-01-13T02:54:17.612Z,9.30
2019-01-13T02:56:58.343Z,9.40
2019-01-13T02:59:39.236Z,9.50
2019-01-13T03:02:19.644Z,9.20
2019-01-13T03:05:00.608Z,9.20
2019-01-13T03:07:41.612Z,9.30
2019-01-13T03:10:22.057Z,9.30
2019-01-13T03:13:11.360Z,9.30
2019-01-13T03:15:59.130Z,9.30
2019-01-13T03:18:46.910Z,9.30
2019-01-13T03:21:34.697Z,9.30
2019-01-13T03:24:22.463Z,9.30
2019-01-13T03:27:10.255Z,9.30
2019-01-13T03:29:58.022Z,9.20
2019-01-13T03:32:45.950Z,9.30
2019-01-13T03:35:33.744Z,9.30
2019-01-13T03:38:21.536Z,9.20
2019-01-13T03:41:09.300Z,9.30
2019-01-13T03:43:57.091Z,9.30
2019-01-13T03:46:44.863Z,9.30
2019-01-13T03:49:32.726Z,9.30
2019-01-13T03:52:20.532Z,9.40
2019-01-13T03:55:08.569Z,9.30
2019-01-13T03:57:56.356Z,9.20
2019-01-13T04:00:44.191Z,9.10
2019-01-13T04:03:31.993Z,9.10
2019-01-13T04:06:19.936Z,9.00
2019-01-13T04:09:07.861Z,9.00
2019-01-13T04:11:55.627Z,9.10
2019-01-13T04:14:36.552Z,9.10
2019-01-13T04:17:17.136Z,9.10
2019-01-13T04:19:57.884Z,9.10
2019-01-13T04:25:21.372Z,9.00
2019-01-13T04:28:01.900Z,9.10
2019-01-13T04:30:42.560Z,9.00
2019-01-13T04:33:23.365Z,9.00
2019-01-13T04:36:04.121Z,9.10
2019-01-13T04:38:44.635Z,9.10
2019-01-13T04:41:25.283Z,9.20
2019-01-13T04:44:06.174Z,9.20
2019-01-13T04:46:46.791Z,9.30
2019-01-13T04:49:27.752Z,9.40
2019-01-13T04:52:08.597Z,9.40
2019-01-13T04:54:49.254Z,9.40
2019-01-13T04:57:29.915Z,9.40
2019-01-13T05:00:10.529Z,9.30
2019-01-13T05:02:51.516Z,9.40
2019-01-13T05:05:32.041Z,9.40
2019-01-13T05:08:12.592Z,9.50
2019-01-13T05:10:53.133Z,9.40
2019-01-13T05:16:16.931Z,9.40
2019-01-13T05:18:57.783Z,9.40
2019-01-13T05:21:38.625Z,9.40
2019-01-13T05:24:19.486Z,9.40
2019-01-13T05:27:00.147Z,9.30
2019-01-13T05:29:40.712Z,9.40
2019-01-13T05:32:21.283Z,9.40
2019-01-13T05:35:02.213Z,9.40
2019-01-13T05:37:42.880Z,9.50
2019-01-13T05:40:23.740Z,9.50
2019-01-13T05:43:04.122Z,9.50
2019-01-13T05:45:44.880Z,9.40
2019-01-13T05:48:25.795Z,9.50
2019-01-13T05:51:06.536Z,9.40
2019-01-13T05:53:47.059Z,9.50
2019-01-13T05:56:27.524Z,9.50
2019-01-13T05:59:07.945Z,9.60
2019-01-13T06:01:49.285Z,9.50
2019-01-13T06:04:30.423Z,9.40
2019-01-13T06:06:58.882Z,9.40
2019-01-13T06:12:34.225Z,9.40
2019-01-13T06:15:14.712Z,9.40
2019-01-13T06:17:55.275Z,9.40
2019-01-13T06:20:36.029Z,9.30
2019-01-13T06:23:16.599Z,9.30
2019-01-13T06:25:57.166Z,9.30
2019-01-13T06:28:37.691Z,9.30
2019-01-13T06:31:18.324Z,9.20
2019-01-13T06:33:58.951Z,9.30
2019-01-13T06:36:39.636Z,9.40
2019-01-13T06:39:20.567Z,9.40
2019-01-13T06:42:01.415Z,9.40
2019-01-13T06:44:42.120Z,9.30
2019-01-13T06:47:23.116Z,9.30
2019-01-13T06:50:04.027Z,9.40
2019-01-13T06:52:44.764Z,9.50
2019-01-13T06:55:25.088Z,9.40
2019-01-13T06:58:05.631Z,9.50
2019-01-13T07:00:46.388Z,9.40
2019-01-13T07:03:27.245Z,9.40
2019-01-13T07:06:08.052Z,9.40
2019-01-13T07:08:48.452Z,9.40
2019-01-13T07:11:29.488Z,9.40
2019-01-13T07:14:10.391Z,9.40
2019-01-13T07:16:51.119Z,9.40
2019-01-13T07:19:32.209Z,9.40
2019-01-13T07:22:12.799Z,9.40
2019-01-13T07:27:36.915Z,9.40
2019-01-13T07:30:18.255Z,9.50
2019-01-13T07:33:02.486Z,9.50
2019-01-13T07:35:42.768Z,9.50
2019-01-13T07:38:24.526Z,9.50
2019-01-13T07:40:56.286Z,9.50
2019-01-13T07:43:44.102Z,9.50
2019-01-13T07:46:31.871Z,9.60
2019-01-13T07:49:19.756Z,9.60
2019-01-13T07:52:07.564Z,9.70
2019-01-13T07:54:55.352Z,9.70
2019-01-13T07:57:43.213Z,9.60
2019-01-13T08:00:31.048Z,9.80
2019-01-13T08:03:18.844Z,9.80
2019-01-13T08:06:06.611Z,9.80
2019-01-13T08:08:55.323Z,9.70
2019-01-13T08:11:43.265Z,9.60
2019-01-13T08:14:11.835Z,9.70
2019-01-13T08:16:59.604Z,9.60
2019-01-13T08:19:47.404Z,9.60
2019-01-13T08:22:35.196Z,9.70
2019-01-13T08:25:23.291Z,9.60
2019-01-13T08:28:11.055Z,9.50
2019-01-13T08:30:58.846Z,9.60
2019-01-13T08:33:46.647Z,9.70
2019-01-13T08:36:34.415Z,9.70
2019-01-13T08:39:22.224Z,9.60
2019-01-13T08:42:10.062Z,9.60
2019-01-13T08:47:51.884Z,9.70
2019-01-13T08:50:39.688Z,9.80
2019-01-13T08:53:27.464Z,9.90
2019-01-13T08:56:15.286Z,9.90
2019-01-13T08:59:03.071Z,9.90
2019-01-13T09:01:50.868Z,9.30
2019-01-13T09:04:38.659Z,9.90
2019-01-13T09:07:26.434Z,9.90
2019-01-13T09:10:34.955Z,9.90
2019-01-13T09:13:22.727Z,9.90
2019-01-13T09:16:06.731Z,9.80
2019-01-13T09:18:47.546Z,9.90
2019-01-13T09:21:28.192Z,9.90
2019-01-13T09:24:09.107Z,9.90
2019-01-13T09:26:51.098Z,9.80
2019-01-13T09:29:32.367Z,9.80
2019-01-13T09:32:13.271Z,9.70
2019-01-13T09:34:53.992Z,9.70
2019-01-13T09:37:34.859Z,9.70
2019-01-13T09:40:15.499Z,9.60
2019-01-13T09:42:56.484Z,9.50
2019-01-13T09:45:37.184Z,9.50
2019-01-13T09:48:17.655Z,9.60
2019-01-13T09:50:58.001Z,9.50
2019-01-13T09:53:38.490Z,9.50
2019-01-13T09:56:19.408Z,9.50
2019-01-13T09:58:59.820Z,9.60
2019-01-13T10:01:40.302Z,9.70
2019-01-13T10:04:20.956Z,9.70
2019-01-13T10:07:01.992Z,9.70
2019-01-13T10:09:43.189Z,9.80
2019-01-13T10:12:24.094Z,9.80
2019-01-13T10:15:04.841Z,9.80
2019-01-13T10:17:45.685Z,9.70
2019-01-13T10:20:26.387Z,9.70
2019-01-13T10:23:06.712Z,9.80
2019-01-13T10:25:47.459Z,9.80
2019-01-13T10:28:28.283Z,9.90
2019-01-13T10:31:09.016Z,10.00
2019-01-13T10:33:49.631Z,9.90
2019-01-13T10:36:30.320Z,9.90
2019-01-13T10:39:11.279Z,10.00
2019-01-13T10:41:51.644Z,10.10
2019-01-13T10:44:32.556Z,10.10
2019-01-13T10:47:13.248Z,10.10
2019-01-13T10:49:56.119Z,10.00
2019-01-13T10:52:36.873Z,10.00
2019-01-13T10:55:17.794Z,10.10
2019-01-13T10:58:02.033Z,10.00
2019-01-13T11:00:42.660Z,10.00
2019-01-13T11:03:23.552Z,9.90
2019-01-13T11:06:04.253Z,9.90
2019-01-13T11:08:45.040Z,9.90
2019-01-13T11:11:25.628Z,10.10
2019-01-13T11:14:06.156Z,10.00
2019-01-13T11:16:46.656Z,10.00
2019-01-13T11:19:27.353Z,10.00
2019-01-13T11:22:07.920Z,10.00
2019-01-13T11:24:48.725Z,9.90
2019-01-13T11:27:29.210Z,9.90
2019-01-13T11:30:09.678Z,9.90
2019-01-13T11:32:50.467Z,10.00
2019-01-13T11:35:31.523Z,10.00
2019-01-13T11:38:12.662Z,10.00
2019-01-13T11:40:53.672Z,10.00
2019-01-13T11:43:34.644Z,10.10
2019-01-13T11:46:03.086Z,10.10
2019-01-13T11:48:50.939Z,10.20
2019-01-13T11:51:38.719Z,10.20
2019-01-13T11:54:26.528Z,10.30
2019-01-13T11:57:14.314Z,10.60
2019-01-13T12:02:49.729Z,10.30
2019-01-13T12:05:37.591Z,10.30
2019-01-13T12:08:25.385Z,10.30
2019-01-13T12:11:13.210Z,10.30
2019-01-13T12:14:01.062Z,10.30
2019-01-13T12:16:48.844Z,10.30
2019-01-13T12:19:36.650Z,10.40
2019-01-13T12:22:24.511Z,10.60
2019-01-13T12:25:33.055Z,10.30
2019-01-13T12:28:20.827Z,10.40
2019-01-13T12:31:08.635Z,10.50
2019-01-13T12:33:56.443Z,10.60
2019-01-13T12:36:44.235Z,10.60
2019-01-13T12:39:32.036Z,10.70
2019-01-13T12:42:19.811Z,10.60
2019-01-13T12:45:28.423Z,10.60
2019-01-13T12:48:16.343Z,10.70
2019-01-13T12:51:04.211Z,10.70
2019-01-13T12:53:52.144Z,10.70
2019-01-13T12:56:39.922Z,10.60
2019-01-13T12:59:27.860Z,10.60
2019-01-13T13:02:15.631Z,10.70
2019-01-13T13:05:24.167Z,10.80
2019-01-13T13:08:11.999Z,10.90
2019-01-13T13:10:59.938Z,11.00
2019-01-13T13:13:47.739Z,11.00
2019-01-13T13:16:28.721Z,11.00
2019-01-13T13:19:09.256Z,11.00
2019-01-13T13:21:49.935Z,10.90
2019-01-13T13:24:30.542Z,10.90
2019-01-13T13:27:11.466Z,11.00
2019-01-13T13:29:52.013Z,10.90
2019-01-13T13:32:32.751Z,10.90
2019-01-13T13:35:13.443Z,10.90
2019-01-13T13:37:54.441Z,10.90
2019-01-13T13:40:35.187Z,10.80
2019-01-13T13:43:15.984Z,10.70
2019-01-13T13:45:56.962Z,10.70
2019-01-13T13:48:37.669Z,10.70
2019-01-13T13:51:18.578Z,10.70
2019-01-13T13:53:59.140Z,10.70
2019-01-13T13:56:39.823Z,10.80
2019-01-13T13:59:20.423Z,10.80
2019-01-13T14:02:00.931Z,10.80
2019-01-13T14:07:24.794Z,10.90
2019-01-13T14:12:48.815Z,11.00
2019-01-13T14:15:29.340Z,11.00
2019-01-13T14:18:09.791Z,11.10
2019-01-13T14:20:50.387Z,11.10
2019-01-13T14:23:31.195Z,11.00
2019-01-13T14:26:12.086Z,11.00
2019-01-13T14:28:52.817Z,11.00
2019-01-13T14:31:33.259Z,11.00
2019-01-13T14:34:13.663Z,11.20
2019-01-13T14:36:54.547Z,11.00
2019-01-13T14:39:35.554Z,11.10
2019-01-13T14:42:16.371Z,11.00
2019-01-13T14:44:57.081Z,11.00
2019-01-13T14:47:38.215Z,11.20
2019-01-13T14:50:19.329Z,11.10
2019-01-13T14:52:59.736Z,11.10
2019-01-13T14:55:40.248Z,11.10
2019-01-13T14:58:21.012Z,11.00
2019-01-13T15:01:01.954Z,11.00
2019-01-13T15:03:42.761Z,11.00
2019-01-13T15:06:23.791Z,11.00
2019-01-13T15:09:06.243Z,11.00
2019-01-13T15:14:29.404Z,11.20
2019-01-13T15:17:10.222Z,11.20
2019-01-13T15:19:51.055Z,11.30
2019-01-13T15:22:32.306Z,10.60
2019-01-13T15:25:12.714Z,11.40
2019-01-13T15:27:53.802Z,11.40
2019-01-13T15:30:34.752Z,11.40
2019-01-13T15:33:15.667Z,11.40
2019-01-13T15:38:39.598Z,11.40
2019-01-13T15:41:20.486Z,11.30
2019-01-13T15:44:01.271Z,11.30
2019-01-13T15:46:42.387Z,11.30
2019-01-13T15:49:23.228Z,11.30
2019-01-13T15:54:46.613Z,11.40
2019-01-13T15:57:27.514Z,11.20
2019-01-13T16:00:08.288Z,11.50
2019-01-13T16:05:32.091Z,11.20
2019-01-13T16:08:13.015Z,11.30
2019-01-13T16:10:53.450Z,11.40
2019-01-13T16:13:34.047Z,11.40
2019-01-13T16:16:14.679Z,11.40
2019-01-13T16:18:55.437Z,11.40
2019-01-13T16:21:36.269Z,11.40
2019-01-13T16:24:17.112Z,11.40
2019-01-13T16:29:40.955Z,11.20
2019-01-13T16:32:21.833Z,11.10
2019-01-13T16:35:02.720Z,11.10
2019-01-13T16:37:43.439Z,11.20
2019-01-13T16:40:24.187Z,11.20
2019-01-13T16:43:04.755Z,11.20
2019-01-13T16:45:45.328Z,11.20
2019-01-13T16:48:26.120Z,11.10
2019-01-13T16:51:06.592Z,11.10
2019-01-13T16:53:47.687Z,11.10
2019-01-13T16:56:28.184Z,11.10
2019-01-13T16:59:09.112Z,11.00
2019-01-13T17:01:49.824Z,11.00
2019-01-13T17:04:30.669Z,11.00
2019-01-13T17:07:11.801Z,11.20
2019-01-13T17:09:52.756Z,11.00
2019-01-13T17:12:33.344Z,11.00
2019-01-13T17:17:57.425Z,11.00
2019-01-13T17:20:37.864Z,11.00
2019-01-13T17:23:18.619Z,11.00
2019-01-13T17:25:59.614Z,11.00
2019-01-13T17:28:40.202Z,11.00
2019-01-13T17:31:20.937Z,10.90
2019-01-13T17:36:44.411Z,11.00
2019-01-13T17:39:24.992Z,11.00
2019-01-13T17:42:05.872Z,11.00
2019-01-13T17:44:46.791Z,10.90
2019-01-13T17:47:27.612Z,10.90
2019-01-13T17:50:08.759Z,10.90
2019-01-13T17:52:49.227Z,10.90
2019-01-13T17:55:29.931Z,10.90
2019-01-13T17:57:58.535Z,10.90
2019-01-13T18:01:07.042Z,10.90
2019-01-13T18:03:54.834Z,11.00
2019-01-13T18:06:23.268Z,11.00
2019-01-13T18:09:11.139Z,11.10
2019-01-13T18:11:58.923Z,11.10
2019-01-13T18:14:39.699Z,11.10
2019-01-13T18:17:20.699Z,11.10
2019-01-13T18:20:01.677Z,11.00
2019-01-13T18:22:42.793Z,11.00
2019-01-13T18:25:23.447Z,11.00
2019-01-13T18:28:04.189Z,11.00
2019-01-13T18:30:44.960Z,11.10
2019-01-13T18:33:25.708Z,11.10
2019-01-13T18:36:06.312Z,11.20
2019-01-13T18:38:47.027Z,11.30
2019-01-13T18:41:27.856Z,11.30
2019-01-13T18:44:08.473Z,11.40
2019-01-13T18:46:48.676Z,11.50
2019-01-13T18:49:29.261Z,11.50
2019-01-13T18:52:09.600Z,11.50
2019-01-13T18:54:50.281Z,11.60
2019-01-13T18:57:30.828Z,11.70
2019-01-13T19:00:11.788Z,11.80
2019-01-13T19:02:52.923Z,11.80
2019-01-13T19:05:33.379Z,11.80
2019-01-13T19:08:14.033Z,11.90
2019-01-13T19:10:55.207Z,11.90
2019-01-13T19:13:36.035Z,11.90
2019-01-13T19:16:20.238Z,11.90
2019-01-13T19:19:01.345Z,11.90
2019-01-13T19:21:41.890Z,11.80
2019-01-13T19:24:22.463Z,11.80
2019-01-13T19:26:50.903Z,11.70
2019-01-13T19:29:38.739Z,11.60
2019-01-13T19:32:26.515Z,11.60
2019-01-13T19:35:35.043Z,11.50
2019-01-13T19:38:22.806Z,11.50
2019-01-13T19:41:10.600Z,11.50
2019-01-13T19:43:58.401Z,11.70
2019-01-13T19:46:46.173Z,11.60
2019-01-13T19:49:35.254Z,11.60
2019-01-13T19:52:23.085Z,11.60
2019-01-13T19:55:31.615Z,11.60
2019-01-13T19:58:19.411Z,11.60
2019-01-13T20:01:07.212Z,11.60
2019-01-13T20:03:55.015Z,11.60
2019-01-13T20:06:42.780Z,11.60
2019-01-13T20:09:30.595Z,11.60
2019-01-13T20:12:18.432Z,11.70
2019-01-13T20:14:58.932Z,11.80
2019-01-13T20:17:39.780Z,11.70
2019-01-13T20:20:20.056Z,11.80
2019-01-13T20:23:00.578Z,11.70
2019-01-13T20:25:41.023Z,11.70
2019-01-13T20:28:21.887Z,11.70
2019-01-13T20:31:02.161Z,11.80
2019-01-13T20:33:42.636Z,11.90
2019-01-13T20:36:23.308Z,11.80
2019-01-13T20:39:05.980Z,11.80
2019-01-13T20:41:46.995Z,11.80
2019-01-13T20:44:27.481Z,11.80
2019-01-13T20:47:07.937Z,11.90
2019-01-13T20:49:48.320Z,11.80
2019-01-13T20:52:29.155Z,11.80
2019-01-13T20:55:10.015Z,11.80
2019-01-13T21:00:33.724Z,11.80
2019-01-13T21:05:57.375Z,11.80
2019-01-13T21:11:20.276Z,11.80
2019-01-13T21:14:01.057Z,11.70
2019-01-13T21:16:45.040Z,11.70
2019-01-13T21:19:25.638Z,11.60
2019-01-13T21:22:06.581Z,11.60
2019-01-13T21:27:30.655Z,11.50
2019-01-13T21:30:11.880Z,11.50
2019-01-13T21:32:52.136Z,11.60
2019-01-13T21:35:34.155Z,11.60
2019-01-13T21:38:14.666Z,11.60
2019-01-13T21:40:55.336Z,11.70
2019-01-13T21:43:36.395Z,11.80
2019-01-13T21:46:17.176Z,11.80
2019-01-13T21:48:57.628Z,11.70
2019-01-13T21:51:38.305Z,11.60
2019-01-13T21:54:18.767Z,11.60
2019-01-13T21:56:59.754Z,11.50
2019-01-13T21:59:40.441Z,11.70
2019-01-13T22:02:21.173Z,11.40
2019-01-13T22:07:44.593Z,11.20
2019-01-13T22:10:25.161Z,11.20
2019-01-13T22:13:06.231Z,11.20
2019-01-13T22:15:47.394Z,11.20
2019-01-13T22:18:28.316Z,11.20
2019-01-13T22:23:52.539Z,11.10
2019-01-13T22:26:33.383Z,11.00
2019-01-13T22:29:14.028Z,11.00
2019-01-13T22:31:54.923Z,11.00
2019-01-13T22:34:35.518Z,11.00
2019-01-13T22:37:16.426Z,11.00
2019-01-13T22:39:57.449Z,11.00
2019-01-13T22:42:38.206Z,11.20
2019-01-13T22:45:18.860Z,11.00
2019-01-13T22:47:59.964Z,11.00
2019-01-13T22:50:40.989Z,10.90
2019-01-13T22:53:21.808Z,10.90
2019-01-13T22:56:02.480Z,10.80
2019-01-13T22:58:43.112Z,10.70
2019-01-13T23:01:25.007Z,10.60
2019-01-13T23:04:06.223Z,10.50
2019-01-13T23:06:47.030Z,10.30
2019-01-13T23:09:27.758Z,10.10
2019-01-13T23:12:08.451Z,10.00
2019-01-13T23:14:49.043Z,9.90
2019-01-13T23:17:17.559Z,9.70
2019-01-13T23:20:06.915Z,9.50
2019-01-13T23:22:35.339Z,9.50
2019-01-13T23:25:23.151Z,9.20
2019-01-13T23:28:10.943Z,9.20
2019-01-13T23:30:58.722Z,9.10
2019-01-13T23:33:46.526Z,9.00
2019-01-13T23:36:14.966Z,9.00
2019-01-13T23:41:57.716Z,9.20
2019-01-13T23:44:45.515Z,9.30
2019-01-13T23:47:33.296Z,9.40
2019-01-13T23:50:21.080Z,9.50
2019-01-13T23:53:08.850Z,9.50
2019-01-13T23:55:56.643Z,9.50
2019-01-13T23:58:44.436Z,9.50
